SBI2806 UHWW-UHSS
Flight info
| Callsign | SBI2806 |
|---|---|
| Flight time | 1h 22m |
| Altitude | 33000 |
| Route | DOLMA2F DOLMA B356 LUBOK W209 RUNUK R810 TIMIT B919 KENOM KENOM2B |
| Aircraft | A21N/M-SDE2E3FGHIRWXY/LB1 |
Departure
| Time | 2026-04-27 18:57 |
|---|---|
| Airport | Vladivostok International Airport (UHWW) |
Arrival
| Time | 2026-04-27 20:19 |
|---|---|
| Airport | Yuzhno-Sakhalinsk International Airport (UHSS) |
| Time | Latitude | Longitude | Altitude | Speed | Heading |
|---|---|---|---|---|---|
| 2026-04-27 17:59 | 43.39697 | 132.16419 | 38 ft | 0 kts | 148° |
| 2026-04-27 18:46 | 43.39707 | 132.16410 | 38 ft | 3 kts | 148° |
| 2026-04-27 18:46 | 43.39725 | 132.16395 | 37 ft | 3 kts | 148° |
| 2026-04-27 18:46 | 43.39739 | 132.16384 | 37 ft | 1 kts | 148° |
| 2026-04-27 18:47 | 43.39751 | 132.16374 | 37 ft | 3 kts | 141° |
| 2026-04-27 18:47 | 43.39764 | 132.16354 | 37 ft | 3 kts | 117° |
| 2026-04-27 18:47 | 43.39770 | 132.16331 | 38 ft | 3 kts | 86° |
| 2026-04-27 18:47 | 43.39765 | 132.16305 | 35 ft | 3 kts | 60° |
| 2026-04-27 18:48 | 43.39753 | 132.16282 | 37 ft | 3 kts | 52° |
| 2026-04-27 18:48 | 43.39742 | 132.16261 | 36 ft | 2 kts | 58° |
| 2026-04-27 18:48 | 43.39739 | 132.16255 | 38 ft | 0 kts | 61° |
| 2026-04-27 18:51 | 43.39745 | 132.16271 | 36 ft | 5 kts | 61° |
| 2026-04-27 18:51 | 43.39771 | 132.16336 | 38 ft | 10 kts | 61° |
| 2026-04-27 18:51 | 43.39808 | 132.16431 | 38 ft | 12 kts | 61° |
| 2026-04-27 18:52 | 43.39853 | 132.16543 | 38 ft | 14 kts | 60° |
| 2026-04-27 18:52 | 43.39903 | 132.16660 | 38 ft | 8 kts | 62° |
| 2026-04-27 18:52 | 43.39923 | 132.16712 | 37 ft | 7 kts | 62° |
| 2026-04-27 18:53 | 43.39988 | 132.16869 | 36 ft | 12 kts | 60° |
| 2026-04-27 18:53 | 43.40029 | 132.16978 | 36 ft | 14 kts | 63° |
| 2026-04-27 18:53 | 43.40044 | 132.17014 | 38 ft | 4 kts | 60° |
| 2026-04-27 18:53 | 43.40064 | 132.17062 | 38 ft | 7 kts | 60° |
| 2026-04-27 18:54 | 43.40115 | 132.17088 | 38 ft | 10 kts | 336° |
| 2026-04-27 18:54 | 43.40185 | 132.17036 | 38 ft | 13 kts | 334° |
| 2026-04-27 18:54 | 43.40224 | 132.17004 | 38 ft | 6 kts | 332° |
| 2026-04-27 18:54 | 43.40269 | 132.16972 | 38 ft | 9 kts | 332° |
| 2026-04-27 18:55 | 43.40330 | 132.16925 | 38 ft | 11 kts | 331° |
| 2026-04-27 18:55 | 43.40406 | 132.16865 | 37 ft | 14 kts | 311° |
| 2026-04-27 18:55 | 43.40423 | 132.16767 | 37 ft | 12 kts | 248° |
| 2026-04-27 18:55 | 43.40406 | 132.16726 | 37 ft | 0 kts | 239° |
| 2026-04-27 18:56 | 43.40345 | 132.16583 | 37 ft | 51 kts | 240° |
| 2026-04-27 18:56 | 43.40047 | 132.15842 | 37 ft | 122 kts | 240° |
| 2026-04-27 18:57 | 43.39536 | 132.14557 | 54 ft | 178 kts | 242° |
| 2026-04-27 18:57 | 43.38941 | 132.13092 | 825 ft | 167 kts | 240° |
| 2026-04-27 18:57 | 43.38338 | 132.11697 | 1488 ft | 175 kts | 243° |
| 2026-04-27 18:57 | 43.37740 | 132.10210 | 2112 ft | 179 kts | 246° |
| 2026-04-27 18:58 | 43.37170 | 132.08678 | 2775 ft | 181 kts | 248° |
| 2026-04-27 18:58 | 43.36784 | 132.07635 | 3267 ft | 180 kts | 245° |
| 2026-04-27 18:58 | 43.35893 | 132.05619 | 3993 ft | 194 kts | 244° |
| 2026-04-27 18:58 | 43.35213 | 132.03947 | 4530 ft | 207 kts | 245° |
| 2026-04-27 18:59 | 43.34514 | 132.02156 | 5096 ft | 218 kts | 250° |
| 2026-04-27 18:59 | 43.34308 | 132.00069 | 5461 ft | 231 kts | 283° |
| 2026-04-27 18:59 | 43.34999 | 131.98008 | 5812 ft | 247 kts | 315° |
| 2026-04-27 18:59 | 43.36470 | 131.96783 | 6424 ft | 255 kts | 346° |
| 2026-04-27 19:00 | 43.38246 | 131.96869 | 7151 ft | 262 kts | 18° |
| 2026-04-27 19:00 | 43.39766 | 131.98271 | 7953 ft | 269 kts | 45° |
| 2026-04-27 19:00 | 43.40964 | 132.00276 | 8781 ft | 274 kts | 49° |
| 2026-04-27 19:00 | 43.42168 | 132.02334 | 9586 ft | 277 kts | 48° |
| 2026-04-27 19:01 | 43.43409 | 132.04386 | 10268 ft | 285 kts | 47° |
| 2026-04-27 19:01 | 43.44742 | 132.06534 | 10612 ft | 304 kts | 47° |
| 2026-04-27 19:01 | 43.46175 | 132.08810 | 10896 ft | 324 kts | 47° |
| 2026-04-27 19:01 | 43.47705 | 132.11218 | 11167 ft | 344 kts | 46° |
| 2026-04-27 19:02 | 43.49294 | 132.13714 | 11635 ft | 354 kts | 46° |
| 2026-04-27 19:02 | 43.50933 | 132.16286 | 12331 ft | 359 kts | 46° |
| 2026-04-27 19:02 | 43.52593 | 132.18889 | 13045 ft | 363 kts | 46° |
| 2026-04-27 19:02 | 43.54266 | 132.21514 | 13767 ft | 368 kts | 46° |
| 2026-04-27 19:03 | 43.55970 | 132.24188 | 14380 ft | 373 kts | 46° |
| 2026-04-27 19:03 | 43.57717 | 132.26928 | 14956 ft | 379 kts | 46° |
| 2026-04-27 19:03 | 43.59481 | 132.29700 | 15506 ft | 386 kts | 46° |
| 2026-04-27 19:03 | 43.60661 | 132.31557 | 15870 ft | 390 kts | 46° |
| 2026-04-27 19:04 | 43.63081 | 132.35363 | 16593 ft | 399 kts | 45° |
| 2026-04-27 19:04 | 43.64927 | 132.38272 | 17131 ft | 406 kts | 45° |
| 2026-04-27 19:04 | 43.66793 | 132.41218 | 17795 ft | 409 kts | 45° |
| 2026-04-27 19:04 | 43.68654 | 132.44159 | 18358 ft | 414 kts | 45° |
| 2026-04-27 19:05 | 43.70563 | 132.47173 | 18851 ft | 419 kts | 45° |
| 2026-04-27 19:05 | 43.72486 | 132.50218 | 19369 ft | 423 kts | 45° |
| 2026-04-27 19:05 | 43.74431 | 132.53299 | 19886 ft | 427 kts | 45° |
| 2026-04-27 19:05 | 43.76391 | 132.56406 | 20403 ft | 430 kts | 46° |
| 2026-04-27 19:06 | 43.78370 | 132.59546 | 20904 ft | 434 kts | 46° |
| 2026-04-27 19:06 | 43.80368 | 132.62689 | 21395 ft | 437 kts | 44° |
| 2026-04-27 19:06 | 43.82572 | 132.65591 | 21897 ft | 439 kts | 38° |
| 2026-04-27 19:06 | 43.84872 | 132.68416 | 22351 ft | 443 kts | 38° |
| 2026-04-27 19:07 | 43.87197 | 132.71262 | 22801 ft | 448 kts | 38° |
| 2026-04-27 19:07 | 43.89546 | 132.74143 | 23250 ft | 452 kts | 38° |
| 2026-04-27 19:07 | 43.91906 | 132.77050 | 23677 ft | 456 kts | 38° |
| 2026-04-27 19:07 | 43.94287 | 132.79990 | 24085 ft | 458 kts | 38° |
| 2026-04-27 19:08 | 43.96673 | 132.82942 | 24527 ft | 460 kts | 38° |
| 2026-04-27 19:08 | 43.99072 | 132.85913 | 24968 ft | 462 kts | 38° |
| 2026-04-27 19:08 | 44.01463 | 132.88878 | 25386 ft | 464 kts | 38° |
| 2026-04-27 19:08 | 44.03886 | 132.91883 | 25826 ft | 465 kts | 38° |
| 2026-04-27 19:09 | 44.06305 | 132.94889 | 26256 ft | 466 kts | 38° |
| 2026-04-27 19:09 | 44.08715 | 132.97886 | 26677 ft | 468 kts | 38° |
| 2026-04-27 19:09 | 44.11155 | 133.00924 | 27105 ft | 469 kts | 38° |
| 2026-04-27 19:09 | 44.13585 | 133.03958 | 27537 ft | 471 kts | 38° |
| 2026-04-27 19:10 | 44.16030 | 133.07022 | 27925 ft | 472 kts | 38° |
| 2026-04-27 19:10 | 44.18470 | 133.10079 | 28439 ft | 471 kts | 38° |
| 2026-04-27 19:10 | 44.20957 | 133.12997 | 28983 ft | 465 kts | 33° |
| 2026-04-27 19:10 | 44.22701 | 133.14804 | 29357 ft | 463 kts | 32° |
| 2026-04-27 19:11 | 44.26133 | 133.18322 | 30036 ft | 460 kts | 32° |
| 2026-04-27 19:11 | 44.28742 | 133.20998 | 30429 ft | 459 kts | 32° |
| 2026-04-27 19:11 | 44.31309 | 133.23643 | 30760 ft | 459 kts | 32° |
| 2026-04-27 19:11 | 44.33857 | 133.26270 | 31015 ft | 461 kts | 32° |
| 2026-04-27 19:12 | 44.36435 | 133.28934 | 31314 ft | 461 kts | 32° |
| 2026-04-27 19:12 | 44.39019 | 133.31607 | 31628 ft | 461 kts | 32° |
| 2026-04-27 19:12 | 44.41591 | 133.34271 | 31936 ft | 461 kts | 33° |
| 2026-04-27 19:12 | 44.44170 | 133.36947 | 32232 ft | 461 kts | 33° |
| 2026-04-27 19:13 | 44.45874 | 133.38717 | 32437 ft | 461 kts | 33° |
| 2026-04-27 19:13 | 44.48443 | 133.41384 | 32797 ft | 459 kts | 32° |
| 2026-04-27 19:13 | 44.51011 | 133.44052 | 33035 ft | 458 kts | 32° |
| 2026-04-27 19:14 | 44.56126 | 133.49380 | 33048 ft | 456 kts | 33° |
| 2026-04-27 19:14 | 44.61209 | 133.54691 | 33032 ft | 456 kts | 33° |
| 2026-04-27 19:15 | 44.66297 | 133.60014 | 33051 ft | 456 kts | 32° |
| 2026-04-27 19:15 | 44.71363 | 133.65327 | 33033 ft | 456 kts | 32° |
| 2026-04-27 19:16 | 44.76447 | 133.70673 | 33035 ft | 456 kts | 32° |
| 2026-04-27 19:16 | 44.81548 | 133.76048 | 33031 ft | 457 kts | 32° |
| 2026-04-27 19:17 | 44.86644 | 133.81428 | 33034 ft | 457 kts | 32° |
| 2026-04-27 19:17 | 44.91579 | 133.87086 | 33018 ft | 463 kts | 43° |
| 2026-04-27 19:18 | 44.95324 | 133.94603 | 33037 ft | 469 kts | 54° |
| 2026-04-27 19:18 | 44.98786 | 134.02394 | 33046 ft | 469 kts | 54° |
| 2026-04-27 19:19 | 45.02290 | 134.10179 | 33038 ft | 470 kts | 53° |
| 2026-04-27 19:19 | 45.05800 | 134.17971 | 33024 ft | 469 kts | 54° |
| 2026-04-27 19:20 | 45.09304 | 134.25774 | 33030 ft | 469 kts | 54° |
| 2026-04-27 19:20 | 45.12777 | 134.33536 | 33053 ft | 468 kts | 53° |
| 2026-04-27 19:21 | 45.16269 | 134.41352 | 33035 ft | 469 kts | 53° |
| 2026-04-27 19:21 | 45.19753 | 134.49175 | 33029 ft | 469 kts | 53° |
| 2026-04-27 19:22 | 45.23231 | 134.57006 | 33061 ft | 469 kts | 53° |
| 2026-04-27 19:22 | 45.26703 | 134.64845 | 33030 ft | 469 kts | 53° |
| 2026-04-27 19:23 | 45.30174 | 134.72704 | 33026 ft | 469 kts | 53° |
| 2026-04-27 19:23 | 45.33637 | 134.80570 | 33022 ft | 469 kts | 53° |
| 2026-04-27 19:24 | 45.37098 | 134.88454 | 33042 ft | 471 kts | 53° |
| 2026-04-27 19:24 | 45.40567 | 134.96373 | 33030 ft | 472 kts | 53° |
| 2026-04-27 19:25 | 45.44034 | 135.04310 | 33025 ft | 472 kts | 53° |
| 2026-04-27 19:25 | 45.47490 | 135.12254 | 33026 ft | 472 kts | 53° |
| 2026-04-27 19:26 | 45.50950 | 135.20209 | 33038 ft | 473 kts | 53° |
| 2026-04-27 19:26 | 45.54413 | 135.28200 | 33015 ft | 474 kts | 53° |
| 2026-04-27 19:27 | 45.57880 | 135.36233 | 33004 ft | 474 kts | 53° |
| 2026-04-27 19:27 | 45.61333 | 135.44251 | 33004 ft | 474 kts | 53° |
| 2026-04-27 19:28 | 45.64778 | 135.52275 | 33000 ft | 475 kts | 53° |
| 2026-04-27 19:28 | 45.68227 | 135.60328 | 32995 ft | 475 kts | 53° |
| 2026-04-27 19:29 | 45.71671 | 135.68402 | 32995 ft | 475 kts | 53° |
| 2026-04-27 19:29 | 45.75108 | 135.76470 | 33015 ft | 475 kts | 54° |
| 2026-04-27 19:30 | 45.78538 | 135.84555 | 32999 ft | 475 kts | 54° |
| 2026-04-27 19:30 | 45.81974 | 135.92671 | 32993 ft | 475 kts | 54° |
| 2026-04-27 19:31 | 45.85370 | 136.00723 | 32978 ft | 474 kts | 54° |
| 2026-04-27 19:31 | 45.88778 | 136.08822 | 33005 ft | 475 kts | 54° |
| 2026-04-27 19:32 | 45.92215 | 136.17024 | 32988 ft | 476 kts | 54° |
| 2026-04-27 19:32 | 45.95596 | 136.25125 | 32975 ft | 476 kts | 54° |
| 2026-04-27 19:33 | 45.99005 | 136.33298 | 32961 ft | 476 kts | 54° |
| 2026-04-27 19:33 | 46.02406 | 136.41471 | 32974 ft | 477 kts | 55° |
| 2026-04-27 19:34 | 46.05817 | 136.49680 | 32967 ft | 477 kts | 55° |
| 2026-04-27 19:34 | 46.09216 | 136.57888 | 32961 ft | 477 kts | 55° |
| 2026-04-27 19:35 | 46.12609 | 136.66121 | 32964 ft | 477 kts | 55° |
| 2026-04-27 19:35 | 46.15998 | 136.74365 | 32962 ft | 477 kts | 55° |
| 2026-04-27 19:36 | 46.19376 | 136.82607 | 32964 ft | 477 kts | 55° |
| 2026-04-27 19:36 | 46.22746 | 136.90862 | 32965 ft | 477 kts | 55° |
| 2026-04-27 19:37 | 46.26116 | 136.99127 | 32982 ft | 478 kts | 56° |
| 2026-04-27 19:37 | 46.29480 | 137.07420 | 32952 ft | 478 kts | 56° |
| 2026-04-27 19:38 | 46.32839 | 137.15720 | 32973 ft | 478 kts | 56° |
| 2026-04-27 19:38 | 46.36147 | 137.24059 | 32959 ft | 484 kts | 60° |
| 2026-04-27 19:38 | 46.37375 | 137.28617 | 32983 ft | 488 kts | 71° |
| 2026-04-27 19:39 | 46.38302 | 137.33348 | 32978 ft | 489 kts | 73° |
| 2026-04-27 19:39 | 46.40067 | 137.42846 | 32981 ft | 489 kts | 73° |
| 2026-04-27 19:40 | 46.41859 | 137.52335 | 32979 ft | 488 kts | 73° |
| 2026-04-27 19:40 | 46.43658 | 137.61839 | 32986 ft | 488 kts | 73° |
| 2026-04-27 19:41 | 46.45442 | 137.71332 | 33002 ft | 488 kts | 73° |
| 2026-04-27 19:41 | 46.47219 | 137.80824 | 32998 ft | 487 kts | 73° |
| 2026-04-27 19:42 | 46.48988 | 137.90329 | 32991 ft | 487 kts | 73° |
| 2026-04-27 19:42 | 46.50745 | 137.99812 | 32983 ft | 487 kts | 73° |
| 2026-04-27 19:43 | 46.52500 | 138.09329 | 33018 ft | 487 kts | 74° |
| 2026-04-27 19:43 | 46.54228 | 138.18825 | 33006 ft | 486 kts | 74° |
| 2026-04-27 19:44 | 46.55951 | 138.28345 | 32974 ft | 488 kts | 75° |
| 2026-04-27 19:44 | 46.57677 | 138.37923 | 32990 ft | 490 kts | 75° |
| 2026-04-27 19:45 | 46.59395 | 138.47513 | 32994 ft | 490 kts | 75° |
| 2026-04-27 19:45 | 46.61097 | 138.57052 | 32995 ft | 490 kts | 75° |
| 2026-04-27 19:46 | 46.62658 | 138.66705 | 32983 ft | 489 kts | 82° |
| 2026-04-27 19:46 | 46.63474 | 138.76543 | 32986 ft | 489 kts | 84° |
| 2026-04-27 19:47 | 46.64254 | 138.86383 | 32984 ft | 489 kts | 84° |
| 2026-04-27 19:47 | 46.65037 | 138.96213 | 32984 ft | 489 kts | 84° |
| 2026-04-27 19:48 | 46.65811 | 139.06052 | 32976 ft | 489 kts | 84° |
| 2026-04-27 19:48 | 46.66575 | 139.15891 | 32962 ft | 491 kts | 85° |
| 2026-04-27 19:49 | 46.67334 | 139.25800 | 32978 ft | 492 kts | 85° |
| 2026-04-27 19:49 | 46.68087 | 139.35697 | 32970 ft | 492 kts | 85° |
| 2026-04-27 19:50 | 46.68711 | 139.43918 | 32970 ft | 491 kts | 85° |
| 2026-04-27 19:50 | 46.69578 | 139.55429 | 32968 ft | 491 kts | 85° |
| 2026-04-27 19:51 | 46.70314 | 139.65327 | 32961 ft | 491 kts | 85° |
| 2026-04-27 19:51 | 46.70938 | 139.73631 | 32962 ft | 491 kts | 85° |
| 2026-04-27 19:52 | 46.71661 | 139.83464 | 32964 ft | 491 kts | 85° |
| 2026-04-27 19:52 | 46.72378 | 139.93372 | 32933 ft | 492 kts | 86° |
| 2026-04-27 19:53 | 46.73464 | 140.08290 | 32958 ft | 493 kts | 86° |
| 2026-04-27 19:53 | 46.74200 | 140.18229 | 32946 ft | 492 kts | 86° |
| 2026-04-27 19:54 | 46.74873 | 140.28153 | 32945 ft | 491 kts | 86° |
| 2026-04-27 19:54 | 46.75536 | 140.38034 | 32661 ft | 487 kts | 87° |
| 2026-04-27 19:55 | 46.75868 | 140.42981 | 31477 ft | 495 kts | 88° |
| 2026-04-27 19:55 | 46.76201 | 140.48042 | 30331 ft | 503 kts | 88° |
| 2026-04-27 19:55 | 46.76530 | 140.53121 | 29422 ft | 502 kts | 88° |
| 2026-04-27 19:55 | 46.76859 | 140.58169 | 28727 ft | 495 kts | 88° |
| 2026-04-27 19:56 | 46.77184 | 140.63135 | 28097 ft | 487 kts | 88° |
| 2026-04-27 19:56 | 46.77503 | 140.68017 | 27504 ft | 479 kts | 88° |
| 2026-04-27 19:56 | 46.77810 | 140.72823 | 26864 ft | 473 kts | 87° |
| 2026-04-27 19:56 | 46.78113 | 140.77583 | 26221 ft | 467 kts | 87° |
| 2026-04-27 19:57 | 46.78409 | 140.82253 | 25599 ft | 461 kts | 87° |
| 2026-04-27 19:57 | 46.78699 | 140.86846 | 24992 ft | 455 kts | 87° |
| 2026-04-27 19:57 | 46.78988 | 140.91442 | 24382 ft | 450 kts | 86° |
| 2026-04-27 19:57 | 46.79273 | 140.95958 | 23760 ft | 446 kts | 86° |
| 2026-04-27 19:58 | 46.79551 | 141.00433 | 23077 ft | 440 kts | 86° |
| 2026-04-27 19:58 | 46.79821 | 141.04859 | 22423 ft | 434 kts | 86° |
| 2026-04-27 19:58 | 46.80079 | 141.09204 | 21809 ft | 427 kts | 86° |
| 2026-04-27 19:58 | 46.80331 | 141.13489 | 21228 ft | 420 kts | 86° |
| 2026-04-27 19:59 | 46.80577 | 141.17706 | 20673 ft | 413 kts | 86° |
| 2026-04-27 19:59 | 46.80816 | 141.21839 | 20139 ft | 407 kts | 85° |
| 2026-04-27 19:59 | 46.81066 | 141.25938 | 19629 ft | 402 kts | 85° |
| 2026-04-27 19:59 | 46.81310 | 141.29969 | 19129 ft | 398 kts | 85° |
| 2026-04-27 20:00 | 46.81550 | 141.33994 | 18629 ft | 396 kts | 85° |
| 2026-04-27 20:00 | 46.81787 | 141.37989 | 18140 ft | 394 kts | 85° |
| 2026-04-27 20:00 | 46.82021 | 141.41978 | 17620 ft | 391 kts | 86° |
| 2026-04-27 20:00 | 46.82253 | 141.45915 | 17135 ft | 388 kts | 85° |
| 2026-04-27 20:01 | 46.82478 | 141.49788 | 16655 ft | 386 kts | 85° |
| 2026-04-27 20:01 | 46.82699 | 141.53678 | 16184 ft | 383 kts | 85° |
| 2026-04-27 20:01 | 46.82918 | 141.57547 | 15737 ft | 381 kts | 85° |
| 2026-04-27 20:01 | 46.83133 | 141.61395 | 15299 ft | 378 kts | 85° |
| 2026-04-27 20:02 | 46.83347 | 141.65257 | 14836 ft | 376 kts | 85° |
| 2026-04-27 20:02 | 46.83554 | 141.69055 | 14395 ft | 374 kts | 85° |
| 2026-04-27 20:02 | 46.83761 | 141.72837 | 13940 ft | 372 kts | 85° |
| 2026-04-27 20:02 | 46.83961 | 141.76598 | 13480 ft | 370 kts | 86° |
| 2026-04-27 20:03 | 46.83882 | 141.80302 | 13018 ft | 368 kts | 98° |
| 2026-04-27 20:03 | 46.83141 | 141.83801 | 12632 ft | 356 kts | 116° |
| 2026-04-27 20:03 | 46.81986 | 141.86983 | 12339 ft | 355 kts | 120° |
| 2026-04-27 20:03 | 46.80802 | 141.90133 | 11943 ft | 352 kts | 119° |
| 2026-04-27 20:04 | 46.79655 | 141.93275 | 11517 ft | 350 kts | 118° |
| 2026-04-27 20:04 | 46.78532 | 141.96417 | 11080 ft | 349 kts | 118° |
| 2026-04-27 20:04 | 46.77431 | 141.99513 | 10757 ft | 338 kts | 118° |
| 2026-04-27 20:04 | 46.76370 | 142.02513 | 10525 ft | 324 kts | 117° |
| 2026-04-27 20:05 | 46.75361 | 142.05371 | 10330 ft | 310 kts | 117° |
| 2026-04-27 20:05 | 46.74399 | 142.08092 | 10159 ft | 296 kts | 117° |
| 2026-04-27 20:05 | 46.73469 | 142.10715 | 9903 ft | 288 kts | 117° |
| 2026-04-27 20:05 | 46.72553 | 142.13294 | 9541 ft | 286 kts | 117° |
| 2026-04-27 20:06 | 46.71645 | 142.15854 | 9165 ft | 284 kts | 117° |
| 2026-04-27 20:06 | 46.70740 | 142.18393 | 8804 ft | 281 kts | 117° |
| 2026-04-27 20:06 | 46.69845 | 142.20909 | 8459 ft | 277 kts | 117° |
| 2026-04-27 20:06 | 46.68963 | 142.23385 | 8132 ft | 273 kts | 117° |
| 2026-04-27 20:07 | 46.68097 | 142.25812 | 7805 ft | 269 kts | 117° |
| 2026-04-27 20:07 | 46.67240 | 142.28218 | 7506 ft | 263 kts | 117° |
| 2026-04-27 20:07 | 46.66403 | 142.30562 | 7212 ft | 258 kts | 117° |
| 2026-04-27 20:07 | 46.65572 | 142.32887 | 6909 ft | 260 kts | 117° |
| 2026-04-27 20:08 | 46.64736 | 142.35233 | 6598 ft | 259 kts | 117° |
| 2026-04-27 20:08 | 46.63904 | 142.37561 | 6294 ft | 260 kts | 117° |
| 2026-04-27 20:08 | 46.63025 | 142.40026 | 6116 ft | 280 kts | 117° |
| 2026-04-27 20:08 | 46.62132 | 142.42514 | 5801 ft | 273 kts | 117° |
| 2026-04-27 20:09 | 46.61301 | 142.44969 | 5431 ft | 267 kts | 109° |
| 2026-04-27 20:09 | 46.60961 | 142.47541 | 5050 ft | 260 kts | 91° |
| 2026-04-27 20:09 | 46.60939 | 142.50177 | 4636 ft | 255 kts | 88° |
| 2026-04-27 20:09 | 46.60938 | 142.52707 | 4232 ft | 252 kts | 89° |
| 2026-04-27 20:10 | 46.60930 | 142.55279 | 3837 ft | 249 kts | 88° |
| 2026-04-27 20:10 | 46.60919 | 142.57736 | 3473 ft | 244 kts | 88° |
| 2026-04-27 20:10 | 46.60902 | 142.60183 | 3120 ft | 240 kts | 88° |
| 2026-04-27 20:10 | 46.60882 | 142.62586 | 2769 ft | 235 kts | 88° |
| 2026-04-27 20:11 | 46.60860 | 142.64965 | 2442 ft | 231 kts | 88° |
| 2026-04-27 20:11 | 46.60836 | 142.67297 | 2102 ft | 234 kts | 87° |
| 2026-04-27 20:11 | 46.60845 | 142.69733 | 1989 ft | 242 kts | 81° |
| 2026-04-27 20:11 | 46.61363 | 142.72017 | 1991 ft | 238 kts | 57° |
| 2026-04-27 20:12 | 46.62503 | 142.73699 | 2001 ft | 231 kts | 29° |
| 2026-04-27 20:12 | 46.63466 | 142.74197 | 1997 ft | 216 kts | 9° |
| 2026-04-27 20:12 | 46.65314 | 142.73963 | 1980 ft | 188 kts | 347° |
| 2026-04-27 20:12 | 46.66545 | 142.73383 | 2012 ft | 173 kts | 339° |
| 2026-04-27 20:13 | 46.67494 | 142.72518 | 2004 ft | 148 kts | 330° |
| 2026-04-27 20:13 | 46.68393 | 142.71861 | 2027 ft | 148 kts | 330° |
| 2026-04-27 20:13 | 46.69171 | 142.70862 | 2022 ft | 146 kts | 337° |
| 2026-04-27 20:13 | 46.70139 | 142.70760 | 2031 ft | 141 kts | 10° |
| 2026-04-27 20:14 | 46.71049 | 142.70988 | 2035 ft | 124 kts | 11° |
| 2026-04-27 20:14 | 46.71902 | 142.71147 | 2020 ft | 124 kts | 8° |
| 2026-04-27 20:14 | 46.72760 | 142.71255 | 2017 ft | 124 kts | 7° |
| 2026-04-27 20:14 | 46.73621 | 142.71332 | 2013 ft | 124 kts | 6° |
| 2026-04-27 20:15 | 46.74487 | 142.71392 | 2006 ft | 124 kts | 5° |
| 2026-04-27 20:15 | 46.75354 | 142.71422 | 2009 ft | 124 kts | 4° |
| 2026-04-27 20:15 | 46.76219 | 142.71446 | 1997 ft | 124 kts | 4° |
| 2026-04-27 20:15 | 46.77080 | 142.71467 | 1885 ft | 124 kts | 4° |
| 2026-04-27 20:16 | 46.77940 | 142.71488 | 1748 ft | 123 kts | 3° |
| 2026-04-27 20:16 | 46.78797 | 142.71509 | 1579 ft | 123 kts | 3° |
| 2026-04-27 20:16 | 46.79656 | 142.71530 | 1421 ft | 124 kts | 3° |
| 2026-04-27 20:16 | 46.80520 | 142.71551 | 1257 ft | 125 kts | 2° |
| 2026-04-27 20:17 | 46.81390 | 142.71572 | 1096 ft | 125 kts | 2° |
| 2026-04-27 20:17 | 46.82256 | 142.71593 | 910 ft | 123 kts | 1° |
| 2026-04-27 20:17 | 46.83096 | 142.71613 | 763 ft | 123 kts | 1° |
| 2026-04-27 20:17 | 46.83676 | 142.71627 | 665 ft | 123 kts | 1° |
| 2026-04-27 20:18 | 46.84795 | 142.71655 | 473 ft | 121 kts | 2° |
| 2026-04-27 20:18 | 46.85638 | 142.71675 | 346 ft | 121 kts | 2° |
| 2026-04-27 20:18 | 46.86482 | 142.71695 | 191 ft | 122 kts | 2° |
| 2026-04-27 20:18 | 46.87338 | 142.71714 | 98 ft | 122 kts | 1° |
| 2026-04-27 20:19 | 46.88097 | 142.71736 | 94 ft | 86 kts | 0° |
| 2026-04-27 20:19 | 46.88528 | 142.71745 | 88 ft | 36 kts | 360° |
| 2026-04-27 20:19 | 46.88684 | 142.71749 | 86 ft | 13 kts | 32° |
| 2026-04-27 20:19 | 46.88696 | 142.71888 | 85 ft | 11 kts | 88° |
| 2026-04-27 20:20 | 46.88696 | 142.71993 | 85 ft | 7 kts | 93° |
| 2026-04-27 20:20 | 46.88695 | 142.72077 | 88 ft | 10 kts | 66° |
| 2026-04-27 20:20 | 46.88769 | 142.72106 | 89 ft | 13 kts | 359° |
| 2026-04-27 20:20 | 46.88798 | 142.72104 | 91 ft | 2 kts | 357° |
| 2026-04-27 20:21 | 46.88827 | 142.72105 | 91 ft | 6 kts | 5° |
| 2026-04-27 20:21 | 46.88844 | 142.72166 | 89 ft | 7 kts | 86° |
| 2026-04-27 20:21 | 46.88842 | 142.72213 | 88 ft | 0 kts | 90° |
| 2026-04-27 20:21 | 46.88842 | 142.72214 | 88 ft | 1 kts | 90° |
| 2026-04-27 20:22 | 46.88842 | 142.72227 | 87 ft | 0 kts | 89° |